Time;durP1;ratioP1;P1;durP2;ratioP2;P2;SDS_P1;SDS_P2;PMS_P1;PMS_P2;Temp;Humidity;BMP_temperature;BMP_pressure;BME280_temperature;BME280_humidity;BME280_pressure;Samples;Min_cycle;Max_cycle;Signal;HPM_P1;HPM_P2
2021/04/23 00:00:23;;;;;;;5.93;2.72;;;12.10;89.20;;;;;;5045576;28;20226;-69
2021/04/23 00:02:50;;;;;;;3.28;2.15;;;12.00;89.20;;;;;;5030579;28;20271;-69
2021/04/23 00:05:17;;;;;;;3.60;2.47;;;12.00;89.20;;;;;;5029918;28;20632;-69
2021/04/23 00:07:43;;;;;;;5.30;2.60;;;12.00;89.40;;;;;;5035050;28;20214;-69
2021/04/23 00:10:13;;;;;;;5.75;2.75;;;12.00;89.40;;;;;;5037288;28;20211;-69
2021/04/23 00:12:40;;;;;;;3.70;2.60;;;11.90;89.60;;;;;;5037891;28;20206;-69
2021/04/23 00:15:09;;;;;;;3.47;2.33;;;11.90;89.60;;;;;;5046271;28;20217;-69
2021/04/23 00:17:36;;;;;;;3.20;2.47;;;11.90;89.80;;;;;;5030280;28;20208;-69
2021/04/23 00:20:08;;;;;;;4.43;3.47;;;11.90;89.80;;;;;;5045445;28;20226;-69
2021/04/23 00:22:34;;;;;;;3.75;2.17;;;11.90;89.90;;;;;;5038136;28;20579;-69
2021/04/23 00:25:00;;;;;;;3.97;2.60;;;11.90;90.00;;;;;;5030413;28;20192;-69
2021/04/23 00:27:26;;;;;;;4.20;2.65;;;11.80;89.80;;;;;;5030202;28;20326;-70
2021/04/23 00:29:52;;;;;;;6.75;3.08;;;11.80;90.00;;;;;;5029682;28;20242;-69
2021/04/23 00:35:04;;;;;;;3.90;2.58;;;11.80;90.10;;;;;;5029895;28;20214;-69
2021/04/23 00:37:30;;;;;;;3.33;2.20;;;11.80;90.10;;;;;;5030330;28;20196;-69
2021/04/23 00:39:57;;;;;;;3.25;2.63;;;11.70;90.10;;;;;;5039439;28;20194;-69
2021/04/23 00:42:23;;;;;;;4.20;2.50;;;11.70;90.20;;;;;;5050321;28;20207;-69
2021/04/23 00:44:49;;;;;;;4.05;3.10;;;11.70;90.30;;;;;;5044172;28;20202;-69
2021/04/23 00:47:15;;;;;;;5.93;3.20;;;11.70;90.30;;;;;;5048224;28;20574;-69
2021/04/23 00:49:41;;;;;;;3.45;2.72;;;11.70;90.40;;;;;;5041404;28;20195;-69
2021/04/23 00:52:09;;;;;;;4.35;3.10;;;11.70;90.30;;;;;;5035681;28;20210;-69
2021/04/23 00:54:35;;;;;;;3.33;2.65;;;11.60;90.30;;;;;;5029416;28;20196;-70
2021/04/23 00:57:01;;;;;;;5.10;3.05;;;11.70;90.40;;;;;;5033961;28;20311;-70
2021/04/23 00:59:27;;;;;;;3.33;2.80;;;11.60;90.30;;;;;;5029493;28;20203;-69
2021/04/23 01:02:07;;;;;;;2.47;2.28;;;11.60;90.30;;;;;;5030308;28;20195;-69
2021/04/23 01:04:34;;;;;;;5.22;2.95;;;11.60;90.30;;;;;;5030262;28;20237;-70
2021/04/23 01:07:00;;;;;;;4.50;2.80;;;11.60;90.20;;;;;;5038489;28;20290;-69
2021/04/23 01:09:30;;;;;;;2.92;2.63;;;11.60;90.10;;;;;;5031307;28;20726;-70
2021/04/23 01:11:59;;;;;;;8.35;3.50;;;11.60;90.20;;;;;;5040753;28;20674;-69
2021/04/23 01:14:25;;;;;;;2.55;2.35;;;11.60;90.30;;;;;;5032888;28;20207;-70
2021/04/23 01:16:52;;;;;;;4.63;3.22;;;11.50;90.20;;;;;;5033984;28;20192;-70
2021/04/23 01:19:20;;;;;;;4.32;3.08;;;11.50;90.20;;;;;;5033429;28;20574;-70
2021/04/23 01:21:48;;;;;;;3.45;3.15;;;11.50;90.30;;;;;;5033651;28;20210;-69
2021/04/23 01:24:15;;;;;;;5.60;2.72;;;11.50;90.30;;;;;;5033670;28;20191;-70
2021/04/23 01:26:44;;;;;;;3.88;2.95;;;11.50;90.40;;;;;;5031634;28;20316;-70
2021/04/23 01:29:13;;;;;;;4.15;3.20;;;11.50;90.40;;;;;;5042841;28;20223;-70
2021/04/23 01:31:43;;;;;;;2.92;2.72;;;11.40;90.30;;;;;;5046149;28;20753;-70
2021/04/23 01:34:13;;;;;;;3.20;2.63;;;11.40;90.30;;;;;;5052167;28;20194;-70
2021/04/23 01:36:41;;;;;;;7.22;3.20;;;11.40;90.30;;;;;;5034347;28;20196;-71
2021/04/23 01:39:11;;;;;;;4.05;3.00;;;11.40;90.30;;;;;;5045061;28;20210;-70
2021/04/23 01:41:38;;;;;;;3.50;2.60;;;11.40;90.50;;;;;;5037529;28;20257;-70
2021/04/23 01:44:06;;;;;;;3.65;2.60;;;11.40;90.40;;;;;;5034265;28;20207;-70
2021/04/23 01:46:33;;;;;;;3.00;2.70;;;11.30;90.40;;;;;;5053160;28;21054;-71
2021/04/23 01:49:00;;;;;;;3.67;2.78;;;11.30;90.40;;;;;;5035457;28;20218;-70
2021/04/23 01:51:27;;;;;;;2.75;2.30;;;11.20;90.80;;;;;;5033026;28;20207;-70
2021/04/23 01:53:54;;;;;;;3.15;2.72;;;11.30;90.50;;;;;;5044909;28;20203;-70
2021/04/23 01:56:22;;;;;;;5.00;2.60;;;11.30;90.60;;;;;;5034250;28;20206;-69
2021/04/23 01:58:48;;;;;;;3.35;2.65;;;11.30;90.50;;;;;;5042412;28;20203;-70
2021/04/23 02:01:15;;;;;;;4.20;3.17;;;11.20;90.50;;;;;;5044737;28;20207;-69
2021/04/23 02:03:42;;;;;;;4.45;2.33;;;11.20;90.50;;;;;;5032622;28;20298;-69
2021/04/23 02:06:09;;;;;;;2.72;2.53;;;11.20;90.70;;;;;;5037819;28;20199;-69
2021/04/23 02:08:36;;;;;;;6.13;3.70;;;11.20;90.70;;;;;;5041802;28;20218;-70
2021/04/23 02:11:06;;;;;;;4.10;3.70;;;11.10;90.70;;;;;;5035651;28;20210;-70
2021/04/23 02:13:36;;;;;;;5.85;3.58;;;11.10;90.80;;;;;;5039782;28;20894;-70
2021/04/23 02:16:02;;;;;;;2.75;2.30;;;11.10;90.80;;;;;;5032808;28;20192;-70
2021/04/23 02:18:29;;;;;;;6.50;3.03;;;11.10;90.70;;;;;;5046271;28;20643;-70
2021/04/23 02:20:55;;;;;;;3.80;3.13;;;11.10;90.70;;;;;;5050479;28;20202;-70
2021/04/23 02:23:23;;;;;;;3.10;2.60;;;11.10;90.80;;;;;;5034598;28;20256;-70
2021/04/23 02:25:50;;;;;;;2.67;2.40;;;11.00;90.70;;;;;;5051137;28;20206;-70
2021/04/23 02:28:17;;;;;;;4.35;3.25;;;11.00;90.70;;;;;;5048132;28;20233;-70
2021/04/23 02:30:47;;;;;;;3.90;3.00;;;11.00;90.70;;;;;;5043952;28;20286;-69
2021/04/23 02:33:18;;;;;;;4.00;3.60;;;11.00;90.70;;;;;;5048354;28;20195;-69
2021/04/23 02:35:45;;;;;;;5.50;2.85;;;11.00;90.70;;;;;;5031884;28;20202;-69
2021/04/23 02:38:11;;;;;;;7.00;3.45;;;11.00;90.70;;;;;;5036131;28;20269;-70
2021/04/23 02:40:39;;;;;;;5.88;2.92;;;11.00;90.70;;;;;;5050102;28;20210;-69
2021/04/23 02:43:08;;;;;;;3.63;3.17;;;10.90;90.80;;;;;;5049960;28;20658;-69
2021/04/23 02:45:36;;;;;;;4.55;2.78;;;10.90;90.90;;;;;;5051155;28;20203;-69
2021/04/23 02:48:05;;;;;;;4.75;3.45;;;10.90;90.90;;;;;;5048214;28;20223;-69
2021/04/23 02:50:32;;;;;;;4.07;3.58;;;10.90;90.80;;;;;;5051643;28;20543;-69
2021/04/23 02:52:58;;;;;;;7.00;3.47;;;10.90;90.80;;;;;;5033390;28;20203;-70
2021/04/23 02:55:26;;;;;;;5.88;3.30;;;10.90;90.80;;;;;;5031868;28;20196;-69
2021/04/23 02:57:58;;;;;;;4.50;3.60;;;10.80;90.80;;;;;;5031468;28;20203;-70
2021/04/23 03:00:27;;;;;;;6.05;3.65;;;10.80;90.90;;;;;;5031138;28;20261;-69
2021/04/23 03:02:53;;;;;;;3.65;2.85;;;10.70;91.00;;;;;;5037212;28;20208;-70
2021/04/23 03:05:22;;;;;;;5.63;3.22;;;10.80;91.00;;;;;;5031666;28;20195;-70
2021/04/23 03:07:50;;;;;;;3.25;2.90;;;10.70;91.10;;;;;;5038265;28;20228;-70
2021/04/23 03:10:17;;;;;;;3.45;3.13;;;10.70;91.10;;;;;;5031408;28;20203;-69
2021/04/23 03:12:44;;;;;;;3.90;2.53;;;10.80;91.00;;;;;;5032926;28;20195;-69
2021/04/23 03:15:11;;;;;;;6.68;3.00;;;10.70;90.90;;;;;;5031637;28;20207;-69
2021/04/23 03:17:37;;;;;;;3.42;3.10;;;10.70;91.00;;;;;;5031069;28;20639;-69
2021/04/23 03:20:12;;;;;;;5.80;2.97;;;10.60;91.10;;;;;;5031004;28;20805;-69
2021/04/23 03:22:40;;;;;;;6.13;3.63;;;10.60;91.10;;;;;;5035137;28;20237;-69
2021/04/23 03:25:08;;;;;;;4.35;3.20;;;10.60;91.30;;;;;;5031273;28;20210;-69
2021/04/23 03:27:34;;;;;;;4.80;3.45;;;10.60;91.30;;;;;;5028811;28;20695;-70
2021/04/23 03:30:01;;;;;;;3.85;3.55;;;10.60;91.30;;;;;;5030960;28;20207;-70
2021/04/23 03:32:27;;;;;;;4.75;3.28;;;10.60;91.20;;;;;;5034057;28;20202;-70
2021/04/23 03:34:53;;;;;;;7.82;3.25;;;10.60;91.10;;;;;;5031031;28;20210;-70
2021/04/23 03:37:20;;;;;;;6.15;3.50;;;10.50;91.20;;;;;;5036113;28;20211;-70
2021/04/23 03:39:47;;;;;;;4.97;2.97;;;10.50;91.40;;;;;;5031175;28;20218;-70
2021/04/23 03:42:13;;;;;;;3.00;2.70;;;10.50;91.40;;;;;;5045044;28;20210;-71
2021/04/23 03:44:39;;;;;;;10.32;4.13;;;10.50;91.30;;;;;;5036261;28;20210;-70
2021/04/23 03:47:06;;;;;;;3.67;2.75;;;10.50;91.40;;;;;;5037188;28;20253;-70
2021/04/23 03:49:32;;;;;;;4.60;3.80;;;10.40;91.60;;;;;;5036917;28;20195;-70
2021/04/23 03:51:59;;;;;;;4.65;3.30;;;10.40;91.50;;;;;;5030725;28;20200;-70
2021/04/23 03:54:25;;;;;;;3.55;2.97;;;10.40;91.50;;;;;;5045075;28;20228;-70
2021/04/23 03:56:52;;;;;;;4.38;3.05;;;10.40;91.50;;;;;;5049273;28;20563;-69
2021/04/23 03:59:18;;;;;;;4.57;3.38;;;10.40;91.60;;;;;;5037012;28;20207;-70
2021/04/23 04:01:44;;;;;;;5.53;3.85;;;10.40;91.50;;;;;;5042858;28;20198;-70
2021/04/23 04:04:11;;;;;;;6.68;4.25;;;10.40;91.40;;;;;;5049344;28;20206;-70
2021/04/23 04:06:37;;;;;;;6.47;3.78;;;10.30;91.50;;;;;;5042975;28;20199;-69
2021/04/23 04:09:04;;;;;;;3.90;3.33;;;10.30;91.70;;;;;;5039954;28;20246;-69
2021/04/23 04:11:31;;;;;;;2.80;2.50;;;10.30;91.70;;;;;;5030350;28;20662;-70
2021/04/23 04:13:58;;;;;;;8.18;3.92;;;10.30;91.60;;;;;;5042784;28;20206;-69
2021/04/23 04:16:24;;;;;;;4.53;4.07;;;10.20;91.60;;;;;;5030634;28;20199;-69
2021/04/23 04:18:50;;;;;;;5.60;3.33;;;10.20;91.90;;;;;;5030796;28;20191;-70
2021/04/23 04:21:17;;;;;;;5.00;3.50;;;10.20;91.70;;;;;;5036552;28;20199;-70
2021/04/23 04:23:43;;;;;;;5.43;3.80;;;10.20;91.80;;;;;;5032660;28;20552;-70
2021/04/23 04:26:09;;;;;;;4.50;3.55;;;10.20;91.90;;;;;;5029954;28;20257;-70
2021/04/23 04:28:36;;;;;;;4.45;3.75;;;10.20;91.70;;;;;;5044197;28;20227;-70
2021/04/23 04:31:03;;;;;;;5.38;3.22;;;10.20;91.70;;;;;;5047167;28;20281;-70
2021/04/23 04:33:29;;;;;;;4.53;3.45;;;10.10;91.70;;;;;;5041322;28;20195;-70
2021/04/23 04:35:56;;;;;;;4.00;3.53;;;10.10;91.80;;;;;;5030176;28;20199;-70
2021/04/23 04:38:22;;;;;;;4.72;4.10;;;10.10;91.90;;;;;;5030786;28;20198;-70
2021/04/23 04:40:50;;;;;;;5.03;3.65;;;10.10;91.80;;;;;;5035702;28;20199;-69
2021/04/23 04:43:18;;;;;;;3.47;3.17;;;10.10;91.80;;;;;;5032574;28;20199;-70
2021/04/23 04:45:47;;;;;;;4.40;3.20;;;10.10;91.80;;;;;;5048288;28;20207;-70
2021/04/23 04:48:14;;;;;;;3.58;3.28;;;10.10;92.00;;;;;;5054302;28;20215;-70
2021/04/23 04:50:48;;;;;;;4.70;3.83;;;10.10;91.90;;;;;;5052281;28;20198;-70
2021/04/23 04:53:15;;;;;;;5.90;3.50;;;10.00;91.90;;;;;;5037617;28;20748;-69
2021/04/23 04:55:44;;;;;;;7.40;3.90;;;10.00;92.00;;;;;;5045629;28;20203;-70
2021/04/23 04:58:13;;;;;;;5.15;3.20;;;10.10;91.90;;;;;;5034007;28;20203;-70
2021/04/23 05:00:40;;;;;;;5.30;3.25;;;10.10;91.90;;;;;;5032941;28;20199;-70
2021/04/23 05:03:07;;;;;;;5.32;3.60;;;10.10;91.80;;;;;;5035198;28;20266;-70
2021/04/23 05:05:35;;;;;;;4.78;3.25;;;10.00;91.90;;;;;;5045463;28;20219;-70
2021/04/23 05:08:01;;;;;;;6.18;3.80;;;10.10;91.90;;;;;;5041899;28;20215;-70
2021/04/23 05:10:28;;;;;;;12.98;4.22;;;10.00;91.80;;;;;;5034238;28;20293;-70
2021/04/23 05:12:54;;;;;;;6.07;4.10;;;10.00;91.70;;;;;;5042808;28;20225;-69
2021/04/23 05:15:21;;;;;;;6.50;3.83;;;10.00;91.90;;;;;;5039856;28;20203;-69
2021/04/23 05:17:48;;;;;;;5.20;3.88;;;10.00;91.90;;;;;;5033591;28;20597;-69
2021/04/23 05:20:17;;;;;;;6.00;4.93;;;10.00;91.90;;;;;;5033375;28;20203;-70
2021/04/23 05:22:44;;;;;;;4.78;3.42;;;10.00;92.00;;;;;;5033030;28;20564;-69
2021/04/23 05:25:14;;;;;;;6.50;4.20;;;10.00;92.10;;;;;;5043379;28;20268;-68
2021/04/23 05:27:41;;;;;;;7.65;4.10;;;10.00;92.10;;;;;;5053196;28;20548;-70
2021/04/23 05:30:11;;;;;;;4.78;3.67;;;10.00;92.00;;;;;;5046839;28;20206;-69
2021/04/23 05:32:39;;;;;;;4.68;3.40;;;10.00;92.00;;;;;;5044223;28;20196;-69
2021/04/23 05:35:07;;;;;;;6.03;4.13;;;10.00;92.10;;;;;;5032808;28;20203;-69
2021/04/23 05:37:35;;;;;;;8.20;3.88;;;9.90;92.80;;;;;;5037255;28;20199;-68
2021/04/23 05:40:02;;;;;;;4.70;3.75;;;10.00;92.60;;;;;;5040805;28;20199;-68
2021/04/23 05:42:30;;;;;;;5.30;3.25;;;10.20;91.70;;;;;;5045312;28;20210;-69
2021/04/23 05:44:56;;;;;;;5.05;3.67;;;10.30;91.10;;;;;;5046854;28;20210;-69
2021/04/23 05:47:23;;;;;;;7.82;4.32;;;10.50;90.50;;;;;;5032507;28;20227;-69
2021/04/23 05:49:49;;;;;;;6.50;4.10;;;10.80;89.80;;;;;;5033658;28;20199;-69
2021/04/23 05:52:15;;;;;;;6.43;3.90;;;11.00;88.50;;;;;;5042065;28;20210;-68
2021/04/23 05:54:42;;;;;;;7.90;3.60;;;11.20;87.20;;;;;;5032662;28;20548;-69
2021/04/23 05:57:09;;;;;;;6.55;3.55;;;11.40;86.20;;;;;;5032816;28;20689;-68
2021/04/23 05:59:35;;;;;;;5.70;3.90;;;11.60;85.30;;;;;;5040311;28;20534;-68
2021/04/23 06:02:01;;;;;;;4.00;3.22;;;11.70;84.50;;;;;;5037296;28;20207;-68
2021/04/23 06:04:27;;;;;;;5.30;3.50;;;11.80;83.90;;;;;;5045835;28;20199;-68
2021/04/23 06:06:54;;;;;;;5.35;3.45;;;11.90;83.30;;;;;;5051706;28;20207;-68
2021/04/23 06:09:20;;;;;;;7.28;3.55;;;12.00;82.70;;;;;;5045201;28;20198;-68
2021/04/23 06:11:46;;;;;;;5.25;3.03;;;12.20;82.10;;;;;;5032534;28;20195;-69
2021/04/23 06:14:13;;;;;;;3.78;3.30;;;12.30;81.40;;;;;;5052412;28;20280;-69
2021/04/23 06:16:39;;;;;;;8.90;3.20;;;12.50;80.80;;;;;;5040771;28;20205;-69
2021/04/23 06:19:06;;;;;;;3.50;3.20;;;12.60;80.40;;;;;;5037325;28;20221;-69
2021/04/23 06:21:34;;;;;;;3.60;2.80;;;12.70;79.90;;;;;;5041831;28;20643;-70
2021/04/23 06:24:00;;;;;;;5.35;3.55;;;12.70;79.40;;;;;;5051480;28;20206;-69
2021/04/23 06:26:26;;;;;;;6.68;2.70;;;12.80;79.00;;;;;;5052049;28;20199;-70
2021/04/23 06:28:53;;;;;;;3.38;2.38;;;13.00;78.90;;;;;;5044931;28;20235;-70
2021/04/23 06:31:20;;;;;;;4.47;3.13;;;13.10;78.40;;;;;;5047660;28;20214;-70
2021/04/23 06:33:49;;;;;;;3.38;3.08;;;13.20;78.10;;;;;;5047833;28;20588;-69
2021/04/23 06:36:15;;;;;;;3.60;2.40;;;13.30;77.70;;;;;;5051764;28;20237;-70
2021/04/23 06:38:42;;;;;;;4.55;2.95;;;13.40;77.30;;;;;;5033198;28;20200;-70
2021/04/23 06:41:09;;;;;;;2.70;2.50;;;13.40;76.90;;;;;;5042403;28;20203;-70
2021/04/23 06:43:35;;;;;;;2.90;2.60;;;13.50;76.70;;;;;;5031768;28;20211;-70
2021/04/23 06:46:02;;;;;;;2.75;1.67;;;13.60;76.50;;;;;;5050801;28;20203;-69
2021/04/23 06:48:29;;;;;;;6.05;2.80;;;13.70;76.30;;;;;;5050440;28;20219;-69
2021/04/23 06:50:55;;;;;;;4.20;2.45;;;13.70;76.80;;;;;;5034797;28;20206;-70
2021/04/23 06:53:24;;;;;;;4.43;2.72;;;13.80;75.80;;;;;;5032200;28;20218;-68
2021/04/23 06:55:50;;;;;;;3.70;2.30;;;13.80;75.60;;;;;;5039924;28;20204;-69
2021/04/23 06:58:17;;;;;;;6.72;2.75;;;14.00;75.50;;;;;;5051580;28;20708;-69
2021/04/23 07:00:43;;;;;;;3.17;2.20;;;14.00;75.30;;;;;;5043899;28;20207;-69
2021/04/23 07:03:11;;;;;;;3.35;2.50;;;14.10;75.80;;;;;;5051080;28;20187;-69
2021/04/23 07:05:40;;;;;;;3.00;2.53;;;14.10;74.80;;;;;;5033589;28;20257;-71
2021/04/23 07:08:07;;;;;;;3.30;2.35;;;14.20;74.50;;;;;;5038163;28;20219;-71
2021/04/23 07:10:33;;;;;;;3.83;2.20;;;14.30;74.30;;;;;;5035610;28;20205;-69
2021/04/23 07:13:00;;;;;;;3.95;2.47;;;14.30;74.20;;;;;;5050558;28;20232;-70
2021/04/23 07:15:28;;;;;;;2.45;2.08;;;14.40;74.10;;;;;;5036040;28;20199;-69
2021/04/23 07:17:55;;;;;;;3.38;2.20;;;14.40;74.00;;;;;;5046127;28;20207;-70
2021/04/23 07:20:23;;;;;;;4.75;2.60;;;14.40;73.90;;;;;;5042540;28;20206;-69
2021/04/23 07:22:51;;;;;;;2.92;1.60;;;14.50;73.90;;;;;;5047767;28;20211;-70
2021/04/23 07:25:19;;;;;;;2.22;2.10;;;14.60;73.50;;;;;;5038068;28;20206;-70
2021/04/23 07:27:46;;;;;;;3.38;2.30;;;14.60;73.40;;;;;;5040302;28;20234;-69
2021/04/23 07:30:15;;;;;;;8.00;2.40;;;14.60;73.40;;;;;;5030250;28;20242;-70
2021/04/23 07:32:42;;;;;;;3.50;2.15;;;14.60;73.40;;;;;;5032352;28;20206;-70
2021/04/23 07:35:09;;;;;;;3.10;2.83;;;14.70;73.60;;;;;;5029636;28;20199;-69
2021/04/23 07:37:36;;;;;;;5.70;2.55;;;14.70;73.40;;;;;;5032520;28;20195;-70
2021/04/23 07:40:04;;;;;;;2.13;1.92;;;14.80;73.30;;;;;;5031785;28;20254;-70
2021/04/23 07:42:30;;;;;;;3.88;2.22;;;14.80;72.90;;;;;;5038342;28;20198;-69
2021/04/23 07:44:57;;;;;;;7.18;2.58;;;14.80;72.60;;;;;;5041628;28;20750;-69
2021/04/23 07:47:23;;;;;;;2.15;1.90;;;14.80;73.80;;;;;;5030122;28;20649;-70
2021/04/23 07:49:50;;;;;;;3.38;2.15;;;14.60;73.40;;;;;;5041720;28;20590;-69
2021/04/23 07:52:16;;;;;;;5.65;3.25;;;14.60;73.80;;;;;;5050852;28;20543;-68
2021/04/23 07:54:43;;;;;;;4.85;3.20;;;14.60;72.70;;;;;;5038256;28;20221;-70
2021/04/23 07:57:11;;;;;;;2.25;1.80;;;14.70;72.60;;;;;;5037221;28;20207;-70
2021/04/23 07:59:39;;;;;;;6.13;2.50;;;14.80;73.00;;;;;;5051636;28;20198;-70
2021/04/23 08:02:06;;;;;;;3.58;2.67;;;14.80;72.40;;;;;;5040215;28;20206;-70
2021/04/23 08:04:33;;;;;;;3.72;2.25;;;14.70;72.90;;;;;;5039652;28;20205;-70
2021/04/23 08:06:59;;;;;;;3.30;2.10;;;14.50;73.50;;;;;;5039793;28;20206;-70
2021/04/23 08:09:26;;;;;;;2.97;2.00;;;14.30;74.00;;;;;;5046859;28;20558;-70
2021/04/23 08:11:52;;;;;;;3.70;2.53;;;14.10;74.70;;;;;;5035460;28;20262;-70
2021/04/23 08:14:19;;;;;;;4.50;2.60;;;14.00;74.90;;;;;;5042732;28;20524;-70
2021/04/23 08:16:45;;;;;;;5.38;2.22;;;13.80;76.20;;;;;;5046667;28;20195;-70
2021/04/23 08:19:11;;;;;;;4.65;2.30;;;13.70;76.60;;;;;;5044882;28;20644;-70
2021/04/23 08:21:38;;;;;;;3.80;2.50;;;13.60;76.70;;;;;;5031153;28;20214;-71
2021/04/23 08:24:05;;;;;;;4.40;2.42;;;13.50;77.50;;;;;;5030872;28;20196;-70
2021/04/23 08:26:31;;;;;;;2.95;2.20;;;13.40;77.50;;;;;;5033225;28;20190;-71
2021/04/23 08:28:58;;;;;;;5.05;2.60;;;13.30;78.40;;;;;;5046377;28;20237;-71
2021/04/23 08:31:25;;;;;;;6.32;2.67;;;13.40;78.20;;;;;;5036718;28;20203;-71
2021/04/23 08:33:51;;;;;;;3.35;2.40;;;13.40;77.90;;;;;;5030811;28;20647;-70
2021/04/23 08:36:17;;;;;;;6.05;2.70;;;13.40;78.00;;;;;;5043776;28;20199;-70
2021/04/23 08:38:43;;;;;;;3.92;3.00;;;13.40;78.20;;;;;;5034456;28;20541;-70
2021/04/23 08:41:10;;;;;;;3.00;1.83;;;13.40;78.10;;;;;;5036814;28;20194;-70
2021/04/23 08:43:36;;;;;;;3.75;2.50;;;13.30;78.50;;;;;;5043617;28;20202;-70
2021/04/23 08:46:03;;;;;;;4.00;2.25;;;13.30;78.60;;;;;;5034143;28;20558;-70
2021/04/23 08:48:30;;;;;;;4.80;2.63;;;13.20;77.80;;;;;;5043198;28;20215;-70
2021/04/23 08:50:57;;;;;;;3.25;2.05;;;13.20;79.20;;;;;;5034436;28;20252;-70
2021/04/23 08:53:26;;;;;;;4.45;3.42;;;13.10;79.20;;;;;;5039242;28;20218;-70
2021/04/23 08:55:53;;;;;;;2.95;2.50;;;13.10;78.70;;;;;;5042445;28;20204;-70
2021/04/23 08:58:19;;;;;;;2.75;2.33;;;13.10;79.60;;;;;;5029129;28;20203;-70
2021/04/23 09:00:46;;;;;;;4.55;2.55;;;13.20;80.70;;;;;;5039607;28;20206;-70
2021/04/23 09:03:14;;;;;;;5.30;2.25;;;13.20;80.20;;;;;;5039713;28;20242;-70
2021/04/23 09:05:41;;;;;;;4.00;2.50;;;13.30;79.00;;;;;;5037431;28;20199;-70
2021/04/23 09:08:09;;;;;;;6.53;2.55;;;13.40;78.30;;;;;;5046746;28;20202;-70
2021/04/23 09:10:37;;;;;;;3.50;1.95;;;13.40;78.50;;;;;;5046789;28;20199;-71
2021/04/23 09:13:09;;;;;;;4.65;2.47;;;13.50;79.00;;;;;;5046531;28;20249;-70
2021/04/23 09:15:36;;;;;;;3.05;2.20;;;13.50;79.20;;;;;;5042859;28;20195;-70
2021/04/23 09:18:11;;;;;;;4.15;2.90;;;13.50;79.00;;;;;;5036624;28;20199;-70
2021/04/23 09:20:39;;;;;;;7.95;3.00;;;13.50;78.40;;;;;;5042394;28;20742;-70
2021/04/23 09:23:12;;;;;;;7.32;3.00;;;13.60;78.00;;;;;;5029468;28;20591;-71
2021/04/23 09:25:44;;;;;;;3.28;1.85;;;13.60;78.10;;;;;;5046448;28;20203;-71
2021/04/23 09:28:12;;;;;;;3.38;2.05;;;13.60;78.70;;;;;;5035769;28;20239;-71
2021/04/23 09:30:39;;;;;;;3.47;2.38;;;13.60;78.70;;;;;;5031444;28;20254;-71
2021/04/23 09:33:22;;;;;;;2.90;2.28;;;13.60;78.40;;;;;;5049738;28;20206;-71
2021/04/23 09:35:48;;;;;;;4.10;2.33;;;13.60;78.20;;;;;;5045937;28;20210;-71
2021/04/23 09:38:17;;;;;;;8.60;2.47;;;13.60;78.50;;;;;;5051038;28;20203;-71
2021/04/23 09:40:44;;;;;;;2.70;2.40;;;13.60;79.40;;;;;;5032593;28;20281;-71
2021/04/23 09:43:10;;;;;;;2.80;2.53;;;13.60;78.20;;;;;;5038733;28;20606;-71
2021/04/23 09:45:48;;;;;;;4.78;3.15;;;13.60;78.20;;;;;;5042786;28;20528;-71
2021/04/23 09:48:19;;;;;;;3.45;2.20;;;13.60;77.80;;;;;;5047594;28;20203;-72
2021/04/23 09:50:45;;;;;;;2.35;1.90;;;13.70;77.80;;;;;;5041824;28;20194;-70
2021/04/23 09:53:12;;;;;;;3.45;2.33;;;13.70;77.90;;;;;;5044773;28;20217;-71
2021/04/23 09:55:39;;;;;;;3.28;2.35;;;13.80;77.30;;;;;;5050860;28;20191;-71
2021/04/23 09:58:07;;;;;;;8.50;2.28;;;13.90;77.60;;;;;;5034164;28;20203;-71
2021/04/23 10:00:35;;;;;;;2.88;2.25;;;14.00;77.10;;;;;;5033940;28;20543;-71
2021/04/23 10:03:03;;;;;;;2.80;2.58;;;14.00;77.20;;;;;;5037837;28;20196;-71
2021/04/23 10:05:35;;;;;;;2.35;1.73;;;14.00;77.50;;;;;;5048306;28;20265;-71
2021/04/23 10:08:02;;;;;;;3.45;2.13;;;14.00;77.60;;;;;;5033312;28;20254;-71
2021/04/23 10:10:29;;;;;;;3.67;2.45;;;14.00;77.60;;;;;;5041135;28;20195;-70
2021/04/23 10:12:58;;;;;;;5.18;2.50;;;14.00;77.40;;;;;;5034387;28;20199;-71
2021/04/23 10:15:26;;;;;;;5.10;2.40;;;14.10;76.50;;;;;;5036535;28;20261;-71
2021/04/23 10:17:55;;;;;;;2.55;2.10;;;14.10;74.70;;;;;;5045102;28;20196;-70
2021/04/23 10:20:23;;;;;;;3.47;2.53;;;14.10;75.60;;;;;;5048808;28;20194;-71
2021/04/23 10:22:50;;;;;;;2.85;2.17;;;14.20;75.70;;;;;;5049379;28;20207;-70
2021/04/23 10:25:16;;;;;;;3.72;2.63;;;14.20;75.30;;;;;;5046907;28;20198;-70
2021/04/23 10:27:45;;;;;;;4.47;2.33;;;14.20;75.10;;;;;;5048800;28;20315;-71
2021/04/23 10:30:15;;;;;;;3.97;2.58;;;14.20;76.20;;;;;;5044362;28;20202;-72
2021/04/23 10:32:42;;;;;;;2.72;2.40;;;14.20;76.40;;;;;;5049588;28;20202;-72
2021/04/23 10:35:09;;;;;;;5.40;1.95;;;14.20;76.70;;;;;;5046124;28;20206;-71
2021/04/23 10:37:36;;;;;;;5.00;2.05;;;14.20;75.20;;;;;;5031672;28;20196;-71
2021/04/23 10:40:04;;;;;;;6.82;2.60;;;14.20;75.10;;;;;;5038873;28;20210;-72
2021/04/23 10:42:42;;;;;;;3.47;3.17;;;14.20;75.40;;;;;;5042348;28;20222;-72
2021/04/23 10:45:25;;;;;;;5.30;2.38;;;14.20;75.90;;;;;;5032317;28;20250;-71
2021/04/23 10:47:53;;;;;;;4.35;2.15;;;14.20;75.60;;;;;;5047336;28;20290;-70
2021/04/23 10:50:21;;;;;;;4.93;1.98;;;14.20;75.40;;;;;;5048529;28;20203;-70
2021/04/23 10:53:02;;;;;;;5.95;2.30;;;14.20;75.20;;;;;;5047195;28;20215;-70
2021/04/23 10:55:49;;;;;;;2.80;2.53;;;14.20;75.80;;;;;;5047444;28;20655;-70
2021/04/23 10:58:18;;;;;;;4.70;2.33;;;14.20;76.00;;;;;;5033956;28;20218;-69
2021/04/23 11:00:47;;;;;;;2.95;2.40;;;14.20;76.00;;;;;;5035840;28;20215;-70
2021/04/23 11:03:31;;;;;;;3.83;2.67;;;14.20;76.30;;;;;;5032122;28;20266;-71
2021/04/23 11:06:00;;;;;;;3.20;2.65;;;14.20;76.70;;;;;;5034691;28;20187;-69
2021/04/23 11:08:30;;;;;;;3.58;2.15;;;14.30;76.20;;;;;;5032041;28;20231;-70
2021/04/23 11:11:16;;;;;;;5.95;2.78;;;14.30;76.20;;;;;;5040406;28;20198;-71
2021/04/23 11:13:45;;;;;;;4.40;2.35;;;14.30;75.70;;;;;;5046567;28;20203;-70
2021/04/23 11:16:37;;;;;;;2.80;1.73;;;14.30;75.80;;;;;;5044428;28;20199;-71
2021/04/23 11:19:32;;;;;;;3.33;2.33;;;14.30;75.20;;;;;;5036304;28;20188;-70
2021/04/23 11:22:10;;;;;;;5.13;2.42;;;14.30;74.20;;;;;;5033548;28;20209;-70
2021/04/23 11:24:37;;;;;;;3.55;2.40;;;14.30;74.30;;;;;;5048676;28;20194;-70
2021/04/23 11:27:11;;;;;;;3.60;2.25;;;14.30;74.60;;;;;;5031864;28;20509;-70
2021/04/23 11:30:02;;;;;;;2.30;2.10;;;14.30;75.70;;;;;;5047188;28;20225;-70
2021/04/23 11:32:30;;;;;;;3.83;2.17;;;14.30;75.80;;;;;;5039329;28;20282;-71
2021/04/23 11:34:58;;;;;;;4.13;2.50;;;14.40;75.90;;;;;;5032359;28;20203;-71
2021/04/23 11:37:27;;;;;;;4.20;2.90;;;14.40;76.30;;;;;;5046810;28;20308;-72
2021/04/23 11:39:55;;;;;;;4.35;2.55;;;14.30;76.20;;;;;;5043377;28;20199;-73
2021/04/23 11:42:22;;;;;;;5.07;3.13;;;14.30;75.80;;;;;;5035241;28;20628;-73
2021/04/23 11:44:54;;;;;;;4.18;3.20;;;14.30;73.90;;;;;;5044272;28;20223;-72
2021/04/23 11:47:34;;;;;;;3.38;2.70;;;14.30;72.70;;;;;;5036385;28;20211;-72
2021/04/23 11:50:09;;;;;;;5.47;2.95;;;14.20;71.80;;;;;;5041744;28;20632;-71
2021/04/23 11:52:35;;;;;;;2.72;2.50;;;14.20;72.40;;;;;;5030351;28;20205;-72
2021/04/23 11:55:09;;;;;;;5.70;3.10;;;14.20;73.50;;;;;;5047800;28;20201;-71
2021/04/23 11:57:35;;;;;;;4.15;2.35;;;14.20;74.10;;;;;;5034124;28;20218;-71
2021/04/23 12:00:06;;;;;;;4.30;2.53;;;14.20;74.50;;;;;;5031862;28;20556;-72
2021/04/23 12:02:45;;;;;;;2.42;2.22;;;14.20;75.00;;;;;;5048413;28;20249;-71
2021/04/23 12:05:32;;;;;;;2.35;2.10;;;14.20;75.20;;;;;;5045797;28;20240;-71
2021/04/23 12:08:01;;;;;;;3.78;2.88;;;14.20;75.40;;;;;;5030508;28;20238;-71
2021/04/23 12:10:29;;;;;;;4.25;2.50;;;14.20;75.10;;;;;;5037445;28;20210;-71
2021/04/23 12:12:55;;;;;;;3.22;2.25;;;14.20;75.00;;;;;;5042166;28;20326;-72
2021/04/23 12:15:27;;;;;;;2.38;2.17;;;14.20;75.20;;;;;;5039581;28;20207;-72
2021/04/23 12:17:55;;;;;;;2.40;2.10;;;14.20;75.60;;;;;;5038562;28;20278;-72
2021/04/23 12:20:24;;;;;;;2.45;1.98;;;14.20;75.80;;;;;;5038711;28;20631;-72
2021/04/23 12:22:51;;;;;;;2.47;2.28;;;14.20;76.00;;;;;;5043125;28;20562;-73
2021/04/23 12:25:33;;;;;;;3.30;1.98;;;14.20;76.30;;;;;;5043682;28;20202;-72
2021/04/23 12:28:26;;;;;;;6.55;2.85;;;14.20;76.50;;;;;;5032580;28;20238;-73
2021/04/23 12:30:54;;;;;;;5.60;3.28;;;14.20;75.40;;;;;;5042748;28;20194;-72
2021/04/23 12:33:22;;;;;;;4.38;2.20;;;14.20;75.30;;;;;;5039163;28;20290;-73
2021/04/23 12:35:50;;;;;;;2.30;2.10;;;14.20;75.70;;;;;;5030994;28;20195;-71
2021/04/23 12:38:36;;;;;;;7.47;3.05;;;14.20;76.10;;;;;;5049846;28;20194;-72
2021/04/23 12:41:14;;;;;;;3.95;2.70;;;14.20;76.00;;;;;;5043567;28;20226;-72
2021/04/23 12:43:40;;;;;;;3.42;3.13;;;14.20;75.80;;;;;;5030840;28;20203;-72
2021/04/23 12:46:07;;;;;;;4.07;3.15;;;14.20;75.90;;;;;;5034677;28;20207;-71
2021/04/23 12:48:34;;;;;;;3.17;2.40;;;14.30;75.80;;;;;;5045254;28;20223;-75
2021/04/23 12:51:05;;;;;;;4.93;2.63;;;14.20;75.90;;;;;;5046610;28;20517;-71
2021/04/23 12:53:31;;;;;;;2.42;2.22;;;14.20;75.80;;;;;;5049526;28;20675;-70
2021/04/23 12:55:57;;;;;;;4.75;2.80;;;14.20;76.10;;;;;;5042518;28;20200;-70